SCX3030 KAFW-KABQ
Flight info
| Callsign | SCX3030 |
|---|---|
| Flight time | N/A |
| Altitude | 34000 |
| Route | BOTCH1 HULZE TXO RECKN COLTR4 |
| Aircraft | B738/M-SABDFGRVYL/LB2 |
Departure
| Time | 2026-04-26 21:42 |
|---|---|
| Airport | Perot Field/Fort Worth Alliance Airport (KAFW) |
Arrival
| Time | N/A |
|---|---|
| Airport | Albuquerque International Sunport (KABQ) |
| Time | Latitude | Longitude | Altitude | Speed | Heading |
|---|---|---|---|---|---|
| 2026-04-26 21:25 | 32.98444 | -97.32242 | 691 ft | 0 kts | 261° |
| 2026-04-26 21:33 | 32.98445 | -97.32237 | 691 ft | 2 kts | 261° |
| 2026-04-26 21:33 | 32.98447 | -97.32220 | 691 ft | 2 kts | 261° |
| 2026-04-26 21:34 | 32.98450 | -97.32201 | 691 ft | 2 kts | 270° |
| 2026-04-26 21:34 | 32.98446 | -97.32184 | 691 ft | 2 kts | 301° |
| 2026-04-26 21:34 | 32.98436 | -97.32171 | 691 ft | 2 kts | 329° |
| 2026-04-26 21:34 | 32.98426 | -97.32166 | 691 ft | 0 kts | 348° |
| 2026-04-26 21:35 | 32.98419 | -97.32165 | 690 ft | 0 kts | 351° |
| 2026-04-26 21:36 | 32.98434 | -97.32167 | 691 ft | 8 kts | 351° |
| 2026-04-26 21:37 | 32.98519 | -97.32185 | 693 ft | 12 kts | 349° |
| 2026-04-26 21:37 | 32.98595 | -97.32201 | 695 ft | 9 kts | 357° |
| 2026-04-26 21:37 | 32.98632 | -97.32137 | 696 ft | 13 kts | 88° |
| 2026-04-26 21:37 | 32.98535 | -97.32075 | 694 ft | 17 kts | 170° |
| 2026-04-26 21:38 | 32.98505 | -97.31954 | 693 ft | 20 kts | 79° |
| 2026-04-26 21:38 | 32.98532 | -97.31786 | 693 ft | 20 kts | 80° |
| 2026-04-26 21:38 | 32.98575 | -97.31639 | 693 ft | 17 kts | 29° |
| 2026-04-26 21:38 | 32.98697 | -97.31644 | 695 ft | 19 kts | 350° |
| 2026-04-26 21:39 | 32.98852 | -97.31677 | 699 ft | 26 kts | 350° |
| 2026-04-26 21:39 | 32.99044 | -97.31716 | 703 ft | 27 kts | 350° |
| 2026-04-26 21:39 | 32.99220 | -97.31752 | 706 ft | 24 kts | 350° |
| 2026-04-26 21:39 | 32.99394 | -97.31786 | 708 ft | 27 kts | 351° |
| 2026-04-26 21:40 | 32.99599 | -97.31827 | 709 ft | 29 kts | 350° |
| 2026-04-26 21:40 | 32.99799 | -97.31869 | 708 ft | 28 kts | 351° |
| 2026-04-26 21:40 | 32.99995 | -97.31906 | 707 ft | 28 kts | 351° |
| 2026-04-26 21:40 | 33.00187 | -97.31945 | 705 ft | 27 kts | 351° |
| 2026-04-26 21:41 | 33.00381 | -97.31984 | 701 ft | 27 kts | 350° |
| 2026-04-26 21:41 | 33.00525 | -97.32020 | 700 ft | 15 kts | 326° |
| 2026-04-26 21:41 | 33.00520 | -97.32127 | 700 ft | 17 kts | 204° |
| 2026-04-26 21:41 | 33.00286 | -97.32098 | 703 ft | 63 kts | 170° |
| 2026-04-26 21:42 | 32.99636 | -97.31964 | 709 ft | 125 kts | 171° |
| 2026-04-26 21:42 | 32.98621 | -97.31762 | 936 ft | 156 kts | 171° |
| 2026-04-26 21:42 | 32.97597 | -97.31533 | 1787 ft | 148 kts | 170° |
| 2026-04-26 21:42 | 32.96561 | -97.31274 | 2328 ft | 159 kts | 169° |
| 2026-04-26 21:43 | 32.95459 | -97.30984 | 2794 ft | 168 kts | 169° |
| 2026-04-26 21:43 | 32.94277 | -97.30652 | 3154 ft | 183 kts | 172° |
| 2026-04-26 21:43 | 32.92956 | -97.30827 | 3476 ft | 201 kts | 200° |
| 2026-04-26 21:43 | 32.91768 | -97.31792 | 3872 ft | 220 kts | 229° |
| 2026-04-26 21:44 | 32.91192 | -97.33559 | 4294 ft | 244 kts | 259° |
| 2026-04-26 21:44 | 32.91121 | -97.35648 | 4802 ft | 258 kts | 265° |
| 2026-04-26 21:44 | 32.91089 | -97.37787 | 5368 ft | 267 kts | 265° |
| 2026-04-26 21:44 | 32.91001 | -97.39997 | 6181 ft | 266 kts | 264° |
| 2026-04-26 21:45 | 32.90881 | -97.42162 | 6972 ft | 266 kts | 263° |
| 2026-04-26 21:45 | 32.90747 | -97.44353 | 7760 ft | 267 kts | 263° |
| 2026-04-26 21:45 | 32.90613 | -97.46533 | 8515 ft | 269 kts | 263° |
| 2026-04-26 21:45 | 32.90477 | -97.48750 | 9357 ft | 269 kts | 264° |
| 2026-04-26 21:46 | 32.90339 | -97.50966 | 10124 ft | 272 kts | 264° |
| 2026-04-26 21:46 | 32.90197 | -97.53240 | 10716 ft | 282 kts | 265° |
| 2026-04-26 21:46 | 32.90054 | -97.55578 | 11430 ft | 286 kts | 265° |
| 2026-04-26 21:46 | 32.89908 | -97.57957 | 12257 ft | 287 kts | 265° |
| 2026-04-26 21:47 | 32.89764 | -97.60322 | 13055 ft | 289 kts | 266° |
| 2026-04-26 21:47 | 32.89617 | -97.62704 | 13868 ft | 290 kts | 266° |
| 2026-04-26 21:47 | 32.89470 | -97.65086 | 14588 ft | 294 kts | 265° |
| 2026-04-26 21:47 | 32.89320 | -97.67526 | 15349 ft | 298 kts | 266° |
| 2026-04-26 21:48 | 32.89174 | -97.69947 | 16157 ft | 299 kts | 266° |
| 2026-04-26 21:48 | 32.89140 | -97.72420 | 16862 ft | 302 kts | 273° |
| 2026-04-26 21:48 | 32.89478 | -97.74900 | 17565 ft | 307 kts | 283° |
| 2026-04-26 21:48 | 32.90159 | -97.77319 | 18273 ft | 311 kts | 289° |
| 2026-04-26 21:49 | 32.90958 | -97.79678 | 19052 ft | 311 kts | 290° |
| 2026-04-26 21:49 | 32.91791 | -97.82084 | 19718 ft | 315 kts | 290° |
| 2026-04-26 21:49 | 32.92618 | -97.84524 | 20345 ft | 319 kts | 289° |
| 2026-04-26 21:49 | 32.93442 | -97.87004 | 21001 ft | 322 kts | 289° |
| 2026-04-26 21:50 | 32.94258 | -97.89479 | 21660 ft | 324 kts | 289° |
| 2026-04-26 21:50 | 32.95078 | -97.91982 | 22299 ft | 327 kts | 289° |
| 2026-04-26 21:50 | 32.95909 | -97.94518 | 22939 ft | 328 kts | 289° |
| 2026-04-26 21:50 | 32.96745 | -97.97073 | 23573 ft | 330 kts | 289° |
| 2026-04-26 21:51 | 32.97578 | -97.99623 | 24122 ft | 334 kts | 288° |
| 2026-04-26 21:51 | 32.98430 | -98.02231 | 24716 ft | 335 kts | 288° |
| 2026-04-26 21:51 | 32.99274 | -98.04821 | 25298 ft | 336 kts | 288° |
| 2026-04-26 21:51 | 33.00123 | -98.07427 | 25834 ft | 338 kts | 288° |
| 2026-04-26 21:52 | 33.00972 | -98.10036 | 26383 ft | 339 kts | 288° |
| 2026-04-26 21:52 | 33.01837 | -98.12698 | 26883 ft | 341 kts | 288° |
| 2026-04-26 21:52 | 33.02702 | -98.15364 | 27309 ft | 345 kts | 288° |
| 2026-04-26 21:52 | 33.03562 | -98.18011 | 27800 ft | 346 kts | 287° |
| 2026-04-26 21:53 | 33.04440 | -98.20714 | 28382 ft | 345 kts | 287° |
| 2026-04-26 21:53 | 33.05312 | -98.23402 | 28764 ft | 349 kts | 287° |
| 2026-04-26 21:53 | 33.06189 | -98.26098 | 29258 ft | 349 kts | 287° |
| 2026-04-26 21:53 | 33.07073 | -98.28811 | 29700 ft | 351 kts | 287° |
| 2026-04-26 21:54 | 33.07962 | -98.31550 | 30055 ft | 355 kts | 287° |
| 2026-04-26 21:54 | 33.08852 | -98.34285 | 30545 ft | 354 kts | 287° |
| 2026-04-26 21:54 | 33.09740 | -98.37013 | 30981 ft | 355 kts | 287° |
| 2026-04-26 21:54 | 33.10644 | -98.39795 | 31213 ft | 361 kts | 287° |
| 2026-04-26 21:55 | 33.11559 | -98.42613 | 31699 ft | 360 kts | 287° |
| 2026-04-26 21:55 | 33.12470 | -98.45424 | 32068 ft | 362 kts | 287° |
| 2026-04-26 21:55 | 33.13376 | -98.48225 | 32385 ft | 365 kts | 287° |
| 2026-04-26 21:55 | 33.14301 | -98.51090 | 32760 ft | 366 kts | 288° |
| 2026-04-26 21:56 | 33.15212 | -98.53907 | 33159 ft | 366 kts | 287° |
| 2026-04-26 21:56 | 33.16135 | -98.56760 | 33396 ft | 370 kts | 288° |
| 2026-04-26 21:56 | 33.17067 | -98.59650 | 33703 ft | 371 kts | 288° |
| 2026-04-26 21:56 | 33.18000 | -98.62551 | 33744 ft | 376 kts | 287° |
| 2026-04-26 21:57 | 33.19885 | -98.68404 | 33741 ft | 369 kts | 287° |
| 2026-04-26 21:57 | 33.21725 | -98.74129 | 33730 ft | 369 kts | 287° |
| 2026-04-26 21:58 | 33.23585 | -98.79939 | 33730 ft | 379 kts | 287° |
| 2026-04-26 21:58 | 33.25504 | -98.85956 | 33721 ft | 396 kts | 287° |
| 2026-04-26 21:59 | 33.27505 | -98.92230 | 33719 ft | 406 kts | 287° |
| 2026-04-26 21:59 | 33.29527 | -98.98547 | 33713 ft | 403 kts | 287° |
| 2026-04-26 22:00 | 33.31516 | -99.04792 | 33716 ft | 404 kts | 287° |
| 2026-04-26 22:00 | 33.33514 | -99.11071 | 33718 ft | 403 kts | 287° |
| 2026-04-26 22:01 | 33.35507 | -99.17354 | 33722 ft | 403 kts | 287° |
| 2026-04-26 22:01 | 33.37482 | -99.23599 | 33726 ft | 402 kts | 287° |
| 2026-04-26 22:02 | 33.39464 | -99.29885 | 33722 ft | 401 kts | 287° |
| 2026-04-26 22:02 | 33.41418 | -99.36090 | 33725 ft | 400 kts | 286° |
| 2026-04-26 22:03 | 33.43382 | -99.42348 | 33724 ft | 401 kts | 286° |
| 2026-04-26 22:03 | 33.45346 | -99.48612 | 33726 ft | 400 kts | 287° |
| 2026-04-26 22:04 | 33.47271 | -99.54886 | 33723 ft | 400 kts | 285° |
| 2026-04-26 22:04 | 33.49026 | -99.61161 | 33719 ft | 400 kts | 284° |
| 2026-04-26 22:05 | 33.50731 | -99.67414 | 33717 ft | 399 kts | 284° |
| 2026-04-26 22:05 | 33.52464 | -99.73733 | 33708 ft | 399 kts | 284° |
| 2026-04-26 22:06 | 33.54207 | -99.80048 | 33711 ft | 399 kts | 284° |
| 2026-04-26 22:06 | 33.55952 | -99.86363 | 33711 ft | 397 kts | 284° |
| 2026-04-26 22:07 | 33.57683 | -99.92628 | 33721 ft | 397 kts | 284° |
| 2026-04-26 22:07 | 33.59414 | -99.98913 | 33731 ft | 397 kts | 284° |
| 2026-04-26 22:08 | 33.61151 | -100.05242 | 33735 ft | 397 kts | 284° |
| 2026-04-26 22:08 | 33.62872 | -100.11523 | 33743 ft | 396 kts | 284° |
| 2026-04-26 22:09 | 33.64608 | -100.17868 | 33741 ft | 398 kts | 284° |
| 2026-04-26 22:09 | 33.66363 | -100.24178 | 33739 ft | 398 kts | 285° |
| 2026-04-26 22:10 | 33.68401 | -100.30411 | 33740 ft | 399 kts | 287° |
| 2026-04-26 22:10 | 33.70509 | -100.36568 | 33743 ft | 401 kts | 287° |
| 2026-04-26 22:11 | 33.72606 | -100.42761 | 33744 ft | 400 kts | 287° |
| 2026-04-26 22:11 | 33.74684 | -100.48977 | 33747 ft | 399 kts | 287° |
| 2026-04-26 22:12 | 33.76744 | -100.55187 | 33756 ft | 399 kts | 287° |
| 2026-04-26 22:12 | 33.78788 | -100.61369 | 33756 ft | 398 kts | 287° |
| 2026-04-26 22:13 | 33.80841 | -100.67607 | 33764 ft | 399 kts | 286° |
| 2026-04-26 22:13 | 33.82860 | -100.73750 | 33769 ft | 396 kts | 287° |
| 2026-04-26 22:14 | 33.84894 | -100.79961 | 33776 ft | 395 kts | 286° |
| 2026-04-26 22:14 | 33.86921 | -100.86163 | 33788 ft | 398 kts | 286° |
| 2026-04-26 22:15 | 33.88942 | -100.92352 | 33800 ft | 396 kts | 286° |
| 2026-04-26 22:15 | 33.90950 | -100.98509 | 33820 ft | 396 kts | 286° |
| 2026-04-26 22:16 | 33.92961 | -101.04689 | 33823 ft | 395 kts | 286° |
| 2026-04-26 22:16 | 33.94961 | -101.10854 | 33832 ft | 395 kts | 286° |
| 2026-04-26 22:17 | 33.96958 | -101.17019 | 33836 ft | 395 kts | 286° |
| 2026-04-26 22:17 | 33.98973 | -101.23247 | 33842 ft | 397 kts | 286° |
| 2026-04-26 22:18 | 34.00972 | -101.29439 | 33842 ft | 396 kts | 286° |
| 2026-04-26 22:18 | 34.02959 | -101.35615 | 33832 ft | 394 kts | 286° |
| 2026-04-26 22:19 | 34.04950 | -101.41814 | 33839 ft | 395 kts | 286° |
| 2026-04-26 22:19 | 34.06942 | -101.48028 | 33843 ft | 396 kts | 285° |
| 2026-04-26 22:20 | 34.08930 | -101.54234 | 33838 ft | 396 kts | 285° |
| 2026-04-26 22:20 | 34.10880 | -101.60337 | 33817 ft | 395 kts | 285° |
| 2026-04-26 22:21 | 34.12864 | -101.66564 | 33820 ft | 398 kts | 285° |
| 2026-04-26 22:21 | 34.14826 | -101.72733 | 33809 ft | 394 kts | 285° |
| 2026-04-26 22:22 | 34.16804 | -101.78963 | 33814 ft | 398 kts | 284° |
| 2026-04-26 22:22 | 34.18776 | -101.85181 | 33827 ft | 397 kts | 285° |
| 2026-04-26 22:23 | 34.20748 | -101.91420 | 33830 ft | 397 kts | 285° |
| 2026-04-26 22:23 | 34.22707 | -101.97627 | 33843 ft | 397 kts | 284° |
| 2026-04-26 22:24 | 34.24679 | -102.03888 | 33860 ft | 396 kts | 284° |
| 2026-04-26 22:24 | 34.26646 | -102.10146 | 33864 ft | 396 kts | 284° |
| 2026-04-26 22:25 | 34.28600 | -102.16383 | 33867 ft | 396 kts | 284° |
| 2026-04-26 22:25 | 34.30558 | -102.22644 | 33871 ft | 397 kts | 284° |
| 2026-04-26 22:26 | 34.32504 | -102.28879 | 33871 ft | 397 kts | 285° |
| 2026-04-26 22:26 | 34.34450 | -102.35126 | 33871 ft | 397 kts | 285° |
| 2026-04-26 22:27 | 34.36398 | -102.41389 | 33867 ft | 397 kts | 284° |
| 2026-04-26 22:27 | 34.38330 | -102.47615 | 33856 ft | 394 kts | 284° |
| 2026-04-26 22:28 | 34.40265 | -102.53868 | 33860 ft | 395 kts | 284° |
| 2026-04-26 22:28 | 34.42197 | -102.60123 | 33861 ft | 395 kts | 284° |
| 2026-04-26 22:29 | 34.44114 | -102.66335 | 33858 ft | 394 kts | 284° |
| 2026-04-26 22:29 | 34.46037 | -102.72588 | 33865 ft | 394 kts | 284° |
| 2026-04-26 22:30 | 34.47953 | -102.78821 | 33866 ft | 393 kts | 284° |
| 2026-04-26 22:30 | 34.49639 | -102.85122 | 33852 ft | 390 kts | 277° |
| 2026-04-26 22:31 | 34.50570 | -102.91507 | 33847 ft | 384 kts | 274° |
| 2026-04-26 22:31 | 34.51306 | -102.97917 | 33836 ft | 384 kts | 273° |
| 2026-04-26 22:32 | 34.52052 | -103.04400 | 33840 ft | 386 kts | 274° |
| 2026-04-26 22:32 | 34.52811 | -103.10812 | 33836 ft | 385 kts | 273° |
| 2026-04-26 22:33 | 34.53967 | -103.20457 | 33845 ft | 384 kts | 274° |
| 2026-04-26 22:34 | 34.54738 | -103.26863 | 33851 ft | 383 kts | 273° |
| 2026-04-26 22:34 | 34.55506 | -103.33315 | 33851 ft | 385 kts | 274° |
| 2026-04-26 22:35 | 34.56273 | -103.39754 | 33863 ft | 385 kts | 273° |
| 2026-04-26 22:35 | 34.57034 | -103.46192 | 33868 ft | 385 kts | 274° |
| 2026-04-26 22:36 | 34.57793 | -103.52599 | 33882 ft | 383 kts | 273° |
| 2026-04-26 22:36 | 34.58596 | -103.59036 | 33886 ft | 386 kts | 275° |
| 2026-04-26 22:37 | 34.59955 | -103.65399 | 33885 ft | 391 kts | 280° |
| 2026-04-26 22:37 | 34.61572 | -103.71680 | 33888 ft | 390 kts | 280° |
| 2026-04-26 22:38 | 34.63193 | -103.77998 | 33886 ft | 390 kts | 279° |
| 2026-04-26 22:38 | 34.64774 | -103.84302 | 33895 ft | 388 kts | 280° |
| 2026-04-26 22:39 | 34.66332 | -103.90613 | 33894 ft | 391 kts | 280° |
| 2026-04-26 22:39 | 34.67888 | -103.96943 | 33886 ft | 388 kts | 279° |
| 2026-04-26 22:40 | 34.69424 | -104.03223 | 33889 ft | 389 kts | 279° |
| 2026-04-26 22:40 | 34.70970 | -104.09561 | 33885 ft | 389 kts | 279° |
| 2026-04-26 22:41 | 34.72505 | -104.15872 | 33884 ft | 387 kts | 279° |
| 2026-04-26 22:41 | 34.74034 | -104.22176 | 33877 ft | 387 kts | 279° |
| 2026-04-26 22:42 | 34.75554 | -104.28455 | 33881 ft | 388 kts | 279° |
| 2026-04-26 22:42 | 34.77075 | -104.34765 | 33875 ft | 387 kts | 279° |
| 2026-04-26 22:43 | 34.78583 | -104.41026 | 33873 ft | 387 kts | 279° |
| 2026-04-26 22:43 | 34.80109 | -104.47387 | 33856 ft | 389 kts | 280° |
| 2026-04-26 22:44 | 34.81619 | -104.53689 | 33844 ft | 387 kts | 279° |
| 2026-04-26 22:44 | 34.83110 | -104.59976 | 33844 ft | 386 kts | 278° |
| 2026-04-26 22:45 | 34.84088 | -104.66341 | 33835 ft | 381 kts | 271° |
| 2026-04-26 22:45 | 34.84666 | -104.72759 | 33829 ft | 376 kts | 270° |
| 2026-04-26 22:46 | 34.85173 | -104.78685 | 33846 ft | 380 kts | 270° |
| 2026-04-26 22:46 | 34.85683 | -104.84500 | 33873 ft | 381 kts | 271° |
| 2026-04-26 22:46 | 34.85970 | -104.87696 | 33870 ft | 369 kts | 271° |
| 2026-04-26 22:47 | 34.86249 | -104.90730 | 33870 ft | 353 kts | 270° |
| 2026-04-26 22:47 | 34.86520 | -104.93664 | 33699 ft | 342 kts | 271° |
| 2026-04-26 22:47 | 34.86782 | -104.96547 | 33310 ft | 337 kts | 270° |
| 2026-04-26 22:47 | 34.87039 | -104.99412 | 32949 ft | 343 kts | 270° |
| 2026-04-26 22:48 | 34.87289 | -105.02276 | 32490 ft | 344 kts | 271° |
| 2026-04-26 22:48 | 34.87546 | -105.05160 | 31991 ft | 341 kts | 270° |
| 2026-04-26 22:48 | 34.87803 | -105.08020 | 31492 ft | 337 kts | 270° |
| 2026-04-26 22:48 | 34.88061 | -105.10851 | 31001 ft | 334 kts | 270° |
| 2026-04-26 22:49 | 34.88312 | -105.13667 | 30509 ft | 331 kts | 270° |
| 2026-04-26 22:49 | 34.88557 | -105.16437 | 30021 ft | 328 kts | 270° |
| 2026-04-26 22:49 | 34.88798 | -105.19166 | 29543 ft | 325 kts | 269° |
| 2026-04-26 22:49 | 34.89039 | -105.21905 | 29073 ft | 322 kts | 270° |
| 2026-04-26 22:50 | 34.89276 | -105.24586 | 28600 ft | 319 kts | 270° |
| 2026-04-26 22:50 | 34.89514 | -105.27287 | 28133 ft | 316 kts | 270° |
| 2026-04-26 22:50 | 34.89746 | -105.29922 | 27669 ft | 313 kts | 270° |
| 2026-04-26 22:50 | 34.89975 | -105.32539 | 27209 ft | 310 kts | 270° |
| 2026-04-26 22:51 | 34.90204 | -105.35149 | 26746 ft | 307 kts | 270° |
| 2026-04-26 22:51 | 34.90429 | -105.37728 | 26293 ft | 305 kts | 270° |
| 2026-04-26 22:51 | 34.90649 | -105.40291 | 25843 ft | 308 kts | 270° |
| 2026-04-26 22:51 | 34.90874 | -105.42915 | 25378 ft | 311 kts | 270° |
| 2026-04-26 22:52 | 34.91096 | -105.45488 | 24911 ft | 308 kts | 270° |
| 2026-04-26 22:52 | 34.91324 | -105.48099 | 24451 ft | 305 kts | 270° |
| 2026-04-26 22:52 | 34.91541 | -105.50620 | 23993 ft | 301 kts | 270° |
| 2026-04-26 22:52 | 34.91754 | -105.53153 | 23546 ft | 298 kts | 270° |
| 2026-04-26 22:53 | 34.91960 | -105.55653 | 23110 ft | 294 kts | 269° |
| 2026-04-26 22:53 | 34.92164 | -105.58136 | 22662 ft | 295 kts | 270° |
| 2026-04-26 22:53 | 34.92365 | -105.60640 | 22223 ft | 301 kts | 270° |
| 2026-04-26 22:53 | 34.92570 | -105.63182 | 21788 ft | 301 kts | 270° |
| 2026-04-26 22:54 | 34.92777 | -105.65702 | 21348 ft | 298 kts | 270° |
| 2026-04-26 22:54 | 34.92983 | -105.68210 | 20909 ft | 295 kts | 270° |
| 2026-04-26 22:54 | 34.93184 | -105.70692 | 20473 ft | 293 kts | 270° |
| 2026-04-26 22:54 | 34.93384 | -105.73158 | 20042 ft | 291 kts | 270° |
| 2026-04-26 22:55 | 34.93581 | -105.75581 | 19612 ft | 289 kts | 270° |
| 2026-04-26 22:55 | 34.93778 | -105.78011 | 19191 ft | 287 kts | 270° |
| 2026-04-26 22:55 | 34.93973 | -105.80459 | 18750 ft | 292 kts | 270° |
| 2026-04-26 22:55 | 34.94173 | -105.82950 | 18307 ft | 293 kts | 271° |
| 2026-04-26 22:56 | 34.94369 | -105.85396 | 17870 ft | 291 kts | 271° |
| 2026-04-26 22:56 | 34.94563 | -105.87815 | 17568 ft | 285 kts | 271° |
| 2026-04-26 22:56 | 34.94756 | -105.90227 | 17230 ft | 289 kts | 271° |
| 2026-04-26 22:56 | 34.94951 | -105.92711 | 16793 ft | 294 kts | 271° |
| 2026-04-26 22:57 | 34.95148 | -105.95197 | 16350 ft | 293 kts | 271° |
| 2026-04-26 22:57 | 34.95342 | -105.97633 | 15923 ft | 291 kts | 271° |
| 2026-04-26 22:57 | 34.95536 | -106.00070 | 15494 ft | 289 kts | 271° |
| 2026-04-26 22:57 | 34.95694 | -106.02515 | 15072 ft | 287 kts | 269° |
| 2026-04-26 22:58 | 34.95739 | -106.04969 | 14643 ft | 286 kts | 267° |
| 2026-04-26 22:58 | 34.95735 | -106.07349 | 14225 ft | 285 kts | 267° |
| 2026-04-26 22:58 | 34.95734 | -106.09784 | 13811 ft | 284 kts | 267° |
| 2026-04-26 22:58 | 34.95746 | -106.12162 | 13387 ft | 284 kts | 268° |
| 2026-04-26 22:59 | 34.95767 | -106.14573 | 12961 ft | 284 kts | 267° |
| 2026-04-26 22:59 | 34.95791 | -106.16965 | 12547 ft | 283 kts | 268° |
| 2026-04-26 22:59 | 34.95817 | -106.19364 | 12143 ft | 282 kts | 268° |
| 2026-04-26 22:59 | 34.95820 | -106.21746 | 11903 ft | 274 kts | 265° |
| 2026-04-26 23:00 | 34.95686 | -106.24017 | 11646 ft | 268 kts | 261° |
| 2026-04-26 23:00 | 34.95462 | -106.26261 | 11194 ft | 269 kts | 261° |
| 2026-04-26 23:00 | 34.95221 | -106.28540 | 10798 ft | 268 kts | 261° |
| 2026-04-26 23:00 | 34.95039 | -106.30371 | 10575 ft | 263 kts | 261° |
| 2026-04-26 23:01 | 34.94893 | -106.31909 | 10477 ft | 253 kts | 261° |
| 2026-04-26 23:01 | 34.94709 | -106.33943 | 10409 ft | 234 kts | 261° |
| 2026-04-26 23:01 | 34.94535 | -106.35851 | 10329 ft | 217 kts | 261° |
| 2026-04-26 23:01 | 34.94373 | -106.37606 | 10253 ft | 200 kts | 261° |
| 2026-04-26 23:02 | 34.94188 | -106.39248 | 10150 ft | 189 kts | 256° |
| 2026-04-26 23:02 | 34.93788 | -106.40751 | 10097 ft | 185 kts | 247° |
| 2026-04-26 23:02 | 34.93299 | -106.42217 | 9908 ft | 188 kts | 249° |
| 2026-04-26 23:02 | 34.92836 | -106.43702 | 9686 ft | 185 kts | 249° |
| 2026-04-26 23:03 | 34.92403 | -106.45152 | 9485 ft | 180 kts | 249° |
| 2026-04-26 23:03 | 34.91992 | -106.46572 | 9299 ft | 173 kts | 252° |
| 2026-04-26 23:03 | 34.91815 | -106.48017 | 9060 ft | 172 kts | 269° |
| 2026-04-26 23:03 | 34.92038 | -106.49435 | 8852 ft | 171 kts | 280° |
| 2026-04-26 23:04 | 34.92501 | -106.50782 | 8622 ft | 174 kts | 290° |
| 2026-04-26 23:04 | 34.93256 | -106.51960 | 8400 ft | 183 kts | 308° |
| 2026-04-26 23:04 | 34.94350 | -106.52814 | 8171 ft | 191 kts | 323° |
| 2026-04-26 23:04 | 34.95640 | -106.53386 | 7930 ft | 202 kts | 338° |
| 2026-04-26 23:05 | 34.97068 | -106.53384 | 7739 ft | 207 kts | 3° |
| 2026-04-26 23:05 | 34.98430 | -106.52725 | 7532 ft | 209 kts | 23° |
| 2026-04-26 23:05 | 34.99652 | -106.51819 | 7344 ft | 204 kts | 25° |
| 2026-04-26 23:05 | 35.00909 | -106.50968 | 7107 ft | 203 kts | 17° |
| 2026-04-26 23:06 | 35.02243 | -106.50584 | 6809 ft | 191 kts | 348° |
| 2026-04-26 23:06 | 35.03350 | -106.51119 | 6560 ft | 159 kts | 307° |
| 2026-04-26 23:06 | 35.03994 | -106.52186 | 6406 ft | 155 kts | 287° |
| 2026-04-26 23:06 | 35.04331 | -106.53387 | 6148 ft | 142 kts | 271° |
| 2026-04-26 23:07 | 35.04379 | -106.54577 | 6001 ft | 138 kts | 266° |
| 2026-04-26 23:07 | 35.04392 | -106.55738 | 5772 ft | 138 kts | 266° |
| 2026-04-26 23:07 | 35.04401 | -106.56906 | 5530 ft | 137 kts | 267° |
| 2026-04-26 23:07 | 35.04412 | -106.58052 | 5383 ft | 132 kts | 266° |
| 2026-04-26 23:08 | 35.04422 | -106.59087 | 5356 ft | 106 kts | 269° |
| 2026-04-26 23:08 | 35.04422 | -106.59895 | 5348 ft | 65 kts | 270° |
| 2026-04-26 23:08 | 35.04426 | -106.60349 | 5345 ft | 54 kts | 269° |
| 2026-04-26 23:08 | 35.04428 | -106.60820 | 5343 ft | 56 kts | 269° |